Time;durP1;ratioP1;P1;durP2;ratioP2;P2;SDS_P1;SDS_P2;PMS_P1;PMS_P2;Temp;Humidity;BMP_temperature;BMP_pressure;BME280_temperature;BME280_humidity;BME280_pressure;Samples;Min_cycle;Max_cycle;Signal;HPM_P1;HPM_P2
2022/09/27 00:00:31;;;;;;;6.32;1.60;;;19.30;96.70;;;;;;5083680;28;20036;-85
2022/09/27 00:03:00;;;;;;;5.88;1.13;;;19.30;96.70;;;;;;5067811;28;20047;-84
2022/09/27 00:05:30;;;;;;;9.07;1.33;;;19.30;96.70;;;;;;5066539;28;20044;-84
2022/09/27 00:07:58;;;;;;;9.38;1.52;;;19.30;96.70;;;;;;5087532;28;20121;-85
2022/09/27 00:10:27;;;;;;;5.53;1.38;;;19.30;96.70;;;;;;5084136;28;20151;-85
2022/09/27 00:12:56;;;;;;;5.88;1.40;;;19.30;96.70;;;;;;5085847;28;20044;-83
2022/09/27 00:15:24;;;;;;;7.53;1.85;;;19.20;96.70;;;;;;5066910;28;20747;-84
2022/09/27 00:17:52;;;;;;;10.20;1.83;;;19.20;96.70;;;;;;5087662;28;20048;-84
2022/09/27 00:20:20;;;;;;;6.28;1.50;;;19.30;96.70;;;;;;5075470;28;20041;-85
2022/09/27 00:22:50;;;;;;;3.58;1.40;;;19.30;96.70;;;;;;5083166;28;20113;-84
2022/09/27 00:25:18;;;;;;;9.55;1.40;;;19.30;96.70;;;;;;5084779;28;20036;-84
2022/09/27 00:27:46;;;;;;;5.68;1.33;;;19.30;96.70;;;;;;5100083;28;20062;-83
2022/09/27 00:30:15;;;;;;;6.38;1.55;;;19.30;96.70;;;;;;5083797;28;20032;-84
2022/09/27 00:32:43;;;;;;;7.13;1.52;;;19.30;96.70;;;;;;5087151;28;20071;-88
2022/09/27 00:35:11;;;;;;;4.85;1.30;;;19.20;96.70;;;;;;5086716;28;20048;-85
2022/09/27 00:37:38;;;;;;;7.30;1.75;;;19.20;96.70;;;;;;5083812;28;20056;-84
2022/09/27 00:40:09;;;;;;;8.23;1.30;;;19.10;96.70;;;;;;5086923;28;20055;-83
2022/09/27 00:42:37;;;;;;;7.40;1.60;;;19.00;96.70;;;;;;5069407;28;20876;-84
2022/09/27 00:45:12;;;;;;;6.70;1.77;;;18.80;96.70;;;;;;5086875;28;20074;-85
2022/09/27 00:47:48;;;;;;;6.22;1.20;;;18.80;96.70;;;;;;5080876;28;20083;-84
2022/09/27 00:50:28;;;;;;;12.10;2.25;;;18.80;96.70;;;;;;5082230;28;20098;-84
2022/09/27 00:53:07;;;;;;;6.82;1.42;;;18.80;96.70;;;;;;5067235;28;20054;-84
2022/09/27 00:55:40;;;;;;;6.15;1.30;;;18.80;96.70;;;;;;5093720;28;20109;-85
2022/09/27 00:58:10;;;;;;;4.78;0.98;;;18.80;96.70;;;;;;5086926;28;20044;-84
2022/09/27 01:00:43;;;;;;;6.47;1.80;;;18.80;96.70;;;;;;5087007;28;20170;-85
2022/09/27 01:03:21;;;;;;;3.75;1.00;;;18.90;96.70;;;;;;5085771;28;20064;-85
2022/09/27 01:05:49;;;;;;;5.88;1.15;;;18.90;96.70;;;;;;5085113;28;20053;-84
2022/09/27 01:08:17;;;;;;;4.50;0.90;;;18.90;96.70;;;;;;5069242;28;20159;-83
2022/09/27 01:10:57;;;;;;;2.83;0.85;;;19.00;96.70;;;;;;5082008;28;20048;-84
2022/09/27 01:13:35;;;;;;;6.30;1.08;;;19.00;96.70;;;;;;5085745;28;20090;-79
2022/09/27 01:16:12;;;;;;;5.43;1.20;;;19.10;96.70;;;;;;5077261;28;20505;-81
2022/09/27 01:18:53;;;;;;;3.28;1.15;;;19.20;96.70;;;;;;5080287;28;20107;-81
2022/09/27 01:21:38;;;;;;;4.00;1.10;;;19.30;96.70;;;;;;5082731;28;20092;-80
2022/09/27 01:24:28;;;;;;;4.80;1.05;;;19.30;96.70;;;;;;5080962;28;20036;-80
2022/09/27 01:27:33;;;;;;;4.95;1.30;;;19.30;96.70;;;;;;5047908;28;20540;-79
2022/09/27 01:30:20;;;;;;;4.03;1.40;;;19.30;96.70;;;;;;5043573;28;20525;-79
2022/09/27 01:33:10;;;;;;;5.53;1.00;;;19.40;96.70;;;;;;5085995;28;20075;-79
2022/09/27 01:35:49;;;;;;;3.58;1.08;;;19.40;96.70;;;;;;5068218;28;20040;-79
2022/09/27 01:38:28;;;;;;;7.32;1.85;;;19.40;96.70;;;;;;5084774;28;20093;-80
2022/09/27 01:41:07;;;;;;;4.30;1.13;;;19.40;96.70;;;;;;5118782;27;20051;-79
2022/09/27 01:43:58;;;;;;;3.72;0.85;;;19.40;96.70;;;;;;5075731;28;20059;-79
2022/09/27 01:46:37;;;;;;;4.78;1.23;;;19.50;96.70;;;;;;5067021;28;20417;-78
2022/09/27 01:49:29;;;;;;;6.03;1.67;;;19.50;96.70;;;;;;5086383;28;20054;-79
2022/09/27 01:52:01;;;;;;;2.88;0.90;;;19.50;96.70;;;;;;5085073;28;20386;-80
2022/09/27 01:54:36;;;;;;;5.80;1.08;;;19.50;96.70;;;;;;5078993;28;20056;-79
2022/09/27 01:57:36;;;;;;;4.88;1.10;;;19.40;96.70;;;;;;5077982;28;20678;-81
2022/09/27 02:00:09;;;;;;;3.30;0.87;;;19.20;96.70;;;;;;5083088;28;20039;-80
2022/09/27 02:02:44;;;;;;;7.93;1.80;;;19.10;96.70;;;;;;5088382;28;20055;-81
2022/09/27 02:05:41;;;;;;;4.70;1.30;;;19.10;96.70;;;;;;5057221;28;20379;-80
2022/09/27 02:08:44;;;;;;;4.90;1.40;;;19.00;96.70;;;;;;5083516;28;20413;-81
2022/09/27 02:11:22;;;;;;;4.50;0.93;;;19.00;96.70;;;;;;5087091;28;20909;-81
2022/09/27 02:14:07;;;;;;;5.30;1.33;;;19.00;96.70;;;;;;5071272;28;20505;-80
2022/09/27 02:16:50;;;;;;;4.93;0.93;;;19.00;96.70;;;;;;5084835;28;20063;-80
2022/09/27 02:19:38;;;;;;;2.13;1.23;;;18.90;96.70;;;;;;5080157;28;20044;-80
2022/09/27 02:22:15;;;;;;;5.18;1.98;;;18.90;96.70;;;;;;5076360;28;20048;-81
2022/09/27 02:24:50;;;;;;;4.22;0.98;;;18.90;96.70;;;;;;5078585;28;20048;-82
2022/09/27 02:27:24;;;;;;;4.20;0.95;;;18.90;96.70;;;;;;5071173;28;20075;-82
2022/09/27 02:29:58;;;;;;;8.48;1.40;;;18.90;96.70;;;;;;5071295;28;20401;-82
2022/09/27 02:32:26;;;;;;;3.08;1.48;;;18.90;96.70;;;;;;5088312;28;20068;-82
2022/09/27 02:34:59;;;;;;;5.70;1.17;;;18.90;96.70;;;;;;5087919;28;20040;-82
2022/09/27 02:37:27;;;;;;;5.25;1.75;;;18.90;96.70;;;;;;5080356;28;20072;-82
2022/09/27 02:39:56;;;;;;;10.90;1.63;;;18.90;96.70;;;;;;5087326;28;20048;-81
2022/09/27 02:42:25;;;;;;;4.22;1.05;;;18.90;96.70;;;;;;5085084;28;20048;-82
2022/09/27 02:44:53;;;;;;;6.00;1.27;;;18.90;96.70;;;;;;5087137;28;20043;-81
2022/09/27 02:47:38;;;;;;;5.88;1.48;;;19.00;96.70;;;;;;5080063;28;20048;-81
2022/09/27 02:50:27;;;;;;;5.35;1.38;;;19.00;96.70;;;;;;5082328;28;20796;-81
2022/09/27 02:53:25;;;;;;;5.05;1.10;;;19.10;96.70;;;;;;5082918;28;20056;-80
2022/09/27 02:56:06;;;;;;;7.30;1.80;;;19.10;96.70;;;;;;5084602;28;20051;-81
2022/09/27 02:59:10;;;;;;;6.97;1.40;;;19.10;96.70;;;;;;5069896;28;20044;-81
2022/09/27 03:02:07;;;;;;;5.15;1.48;;;19.20;96.70;;;;;;5083014;28;20045;-81
2022/09/27 03:05:07;;;;;;;6.80;1.40;;;19.30;96.70;;;;;;5082650;28;20101;-81
2022/09/27 03:07:37;;;;;;;5.32;1.52;;;19.30;96.70;;;;;;5069470;28;20043;-80
2022/09/27 03:10:06;;;;;;;5.68;1.52;;;19.30;96.70;;;;;;5085994;28;20055;-81
2022/09/27 03:12:34;;;;;;;8.35;1.52;;;19.30;96.70;;;;;;5085191;28;20040;-81
2022/09/27 03:15:04;;;;;;;5.18;1.17;;;19.30;96.70;;;;;;5088169;28;20517;-81
2022/09/27 03:18:04;;;;;;;4.93;1.13;;;19.20;96.70;;;;;;5085614;28;20047;-80
2022/09/27 03:20:41;;;;;;;6.05;1.10;;;19.20;96.70;;;;;;5080672;28;20048;-81
2022/09/27 03:23:16;;;;;;;9.48;1.30;;;19.10;96.70;;;;;;5068734;28;20101;-80
2022/09/27 03:25:45;;;;;;;5.85;1.40;;;19.10;96.70;;;;;;5078779;28;20052;-80
2022/09/27 03:28:13;;;;;;;5.53;1.40;;;19.00;96.70;;;;;;5083140;28;20051;-80
2022/09/27 03:30:44;;;;;;;7.18;1.42;;;19.10;96.70;;;;;;5082447;28;20063;-80
2022/09/27 03:33:20;;;;;;;4.85;1.15;;;19.00;96.70;;;;;;5081918;28;20055;-80
2022/09/27 03:35:57;;;;;;;7.15;1.50;;;19.00;96.70;;;;;;5083643;28;20063;-80
2022/09/27 03:38:27;;;;;;;6.05;1.58;;;19.00;96.70;;;;;;5082082;28;20060;-80
2022/09/27 03:40:54;;;;;;;10.30;1.77;;;19.00;96.70;;;;;;5084052;28;20135;-79
2022/09/27 03:43:22;;;;;;;7.28;1.88;;;19.00;96.70;;;;;;5066447;28;20052;-80
2022/09/27 03:45:50;;;;;;;6.20;1.35;;;19.00;96.70;;;;;;5084631;28;20046;-80
2022/09/27 03:48:18;;;;;;;5.90;1.25;;;19.00;96.70;;;;;;5081329;28;20040;-80
2022/09/27 03:50:51;;;;;;;6.85;1.50;;;19.10;96.70;;;;;;5085653;28;20097;-78
2022/09/27 03:53:19;;;;;;;7.60;1.70;;;19.00;96.70;;;;;;5082169;28;20086;-80
2022/09/27 03:55:49;;;;;;;7.60;2.15;;;19.00;96.70;;;;;;5073788;28;20040;-79
2022/09/27 03:58:17;;;;;;;7.80;1.85;;;19.10;96.70;;;;;;5083855;28;20044;-81
2022/09/27 04:00:45;;;;;;;6.70;1.52;;;19.20;96.70;;;;;;5077673;28;20693;-78
2022/09/27 04:03:18;;;;;;;7.68;1.50;;;19.20;96.70;;;;;;5083719;28;20509;-85
2022/09/27 04:05:49;;;;;;;7.57;2.40;;;19.20;96.70;;;;;;5088148;28;20501;-85
2022/09/27 04:08:23;;;;;;;8.55;1.92;;;19.20;96.70;;;;;;5063785;28;20336;-84
2022/09/27 04:10:53;;;;;;;6.80;1.60;;;19.20;96.70;;;;;;5087748;28;20108;-85
2022/09/27 04:13:21;;;;;;;7.20;1.73;;;19.20;96.70;;;;;;5087769;28;20121;-85
2022/09/27 04:15:53;;;;;;;10.18;2.25;;;19.20;96.70;;;;;;5071613;28;20052;-85
2022/09/27 04:18:36;;;;;;;8.85;1.50;;;19.20;96.70;;;;;;5084565;28;20062;-85
2022/09/27 04:21:30;;;;;;;5.93;1.48;;;19.20;96.70;;;;;;5088849;28;20040;-85
2022/09/27 04:23:59;;;;;;;4.45;1.40;;;19.20;96.70;;;;;;5081153;28;20139;-79
2022/09/27 04:26:29;;;;;;;8.90;1.58;;;19.10;96.70;;;;;;5065860;28;20048;-80
2022/09/27 04:29:10;;;;;;;7.63;1.65;;;19.10;96.70;;;;;;5060909;28;20399;-80
2022/09/27 04:31:43;;;;;;;9.75;2.45;;;19.10;96.70;;;;;;5082464;28;20043;-80
2022/09/27 04:36:25;;;;;;;11.55;1.73;;;19.30;96.70;;;;;;5079506;28;20144;-80
2022/09/27 04:37:20;;;;;;;6.03;1.75;;;19.30;96.70;;;;;;5077011;28;20052;-79
2022/09/27 04:39:50;;;;;;;7.78;1.48;;;19.20;96.70;;;;;;5064715;28;20040;-79
2022/09/27 04:42:20;;;;;;;8.00;1.77;;;19.20;96.70;;;;;;5076356;28;20056;-80
2022/09/27 04:44:49;;;;;;;6.30;1.17;;;19.10;96.70;;;;;;5081166;28;20052;-80
2022/09/27 04:47:19;;;;;;;7.30;1.40;;;19.10;96.70;;;;;;5080178;28;20472;-80
2022/09/27 04:49:48;;;;;;;7.20;1.45;;;19.10;96.70;;;;;;5081686;28;20067;-80
2022/09/27 04:52:16;;;;;;;9.88;1.85;;;19.10;96.70;;;;;;5082714;28;20055;-80
2022/09/27 04:54:44;;;;;;;11.45;2.00;;;19.10;96.70;;;;;;5082205;28;20510;-78
2022/09/27 04:57:14;;;;;;;8.02;1.95;;;19.10;96.70;;;;;;5083126;28;20067;-79
2022/09/27 04:59:44;;;;;;;11.07;1.65;;;19.10;96.70;;;;;;5080439;28;20627;-80
2022/09/27 05:02:13;;;;;;;8.73;1.70;;;19.10;96.70;;;;;;5081788;28;20139;-80
2022/09/27 05:04:58;;;;;;;10.68;1.95;;;19.10;96.70;;;;;;5082816;28;20579;-80
2022/09/27 05:07:34;;;;;;;9.93;2.45;;;19.00;96.70;;;;;;5060807;28;20052;-80
2022/09/27 05:10:08;;;;;;;8.77;1.70;;;19.00;96.70;;;;;;5082429;28;20533;-80
2022/09/27 05:12:37;;;;;;;4.95;1.30;;;19.00;96.70;;;;;;5063928;28;20044;-79
2022/09/27 05:15:08;;;;;;;7.68;1.85;;;19.00;96.70;;;;;;5080009;28;20529;-81
2022/09/27 05:17:57;;;;;;;5.32;1.48;;;19.00;96.70;;;;;;5079217;28;20058;-79
2022/09/27 05:20:43;;;;;;;6.70;1.95;;;19.00;96.70;;;;;;5084923;28;20839;-79
2022/09/27 05:23:23;;;;;;;8.35;1.40;;;19.00;96.70;;;;;;5076760;28;20040;-79
2022/09/27 05:25:54;;;;;;;7.40;1.25;;;19.00;96.70;;;;;;5080077;28;20453;-80
2022/09/27 05:28:23;;;;;;;8.45;1.48;;;19.00;96.70;;;;;;5083248;28;20041;-79
2022/09/27 05:30:52;;;;;;;10.10;1.95;;;19.00;96.70;;;;;;5066218;28;20047;-79
2022/09/27 05:33:22;;;;;;;5.82;2.05;;;19.00;96.70;;;;;;5082026;28;20093;-79
2022/09/27 05:36:22;;;;;;;7.07;1.65;;;18.90;96.70;;;;;;5047463;28;20059;-80
2022/09/27 05:38:50;;;;;;;9.25;1.60;;;18.90;96.70;;;;;;5080791;28;20048;-80
2022/09/27 05:41:19;;;;;;;8.88;2.00;;;19.00;96.70;;;;;;5081678;28;20052;-79
2022/09/27 05:43:48;;;;;;;10.13;1.90;;;19.00;96.70;;;;;;5099336;28;20052;-80
2022/09/27 05:46:17;;;;;;;8.55;2.25;;;19.00;96.70;;;;;;5082644;28;20044;-81
2022/09/27 05:48:47;;;;;;;10.43;1.63;;;19.00;96.70;;;;;;5082791;28;20048;-79
2022/09/27 05:51:15;;;;;;;8.82;2.05;;;19.00;96.70;;;;;;5083379;28;20055;-79
2022/09/27 05:53:44;;;;;;;9.48;1.83;;;19.10;96.70;;;;;;5079193;28;20067;-79
2022/09/27 05:56:20;;;;;;;13.70;1.77;;;19.10;96.70;;;;;;5077852;28;20136;-82
2022/09/27 05:59:08;;;;;;;11.80;2.47;;;19.10;96.70;;;;;;5060268;28;20044;-80
2022/09/27 06:02:09;;;;;;;6.00;1.38;;;19.10;96.70;;;;;;5031013;28;20438;-80
2022/09/27 06:04:54;;;;;;;9.73;1.77;;;19.10;96.70;;;;;;5084815;28;20378;-80
2022/09/27 06:07:50;;;;;;;11.40;2.10;;;19.20;96.70;;;;;;5036036;28;20050;-79
2022/09/27 06:10:31;;;;;;;7.72;1.75;;;19.20;96.70;;;;;;5042303;28;20115;-80
2022/09/27 06:13:02;;;;;;;7.75;1.90;;;19.30;96.70;;;;;;5024120;28;20388;-80
2022/09/27 06:15:38;;;;;;;8.07;1.80;;;19.30;96.70;;;;;;5043829;28;20136;-81
2022/09/27 06:18:09;;;;;;;10.57;2.33;;;19.40;96.70;;;;;;5043970;28;20137;-79
2022/09/27 06:20:41;;;;;;;9.65;1.98;;;19.40;96.70;;;;;;5027332;28;20079;-80
2022/09/27 06:23:11;;;;;;;12.43;2.00;;;19.50;96.70;;;;;;5043473;28;20049;-80
2022/09/27 06:25:40;;;;;;;8.18;1.90;;;19.50;96.70;;;;;;5042817;28;20053;-81
2022/09/27 06:28:29;;;;;;;11.50;2.42;;;19.50;96.70;;;;;;5019263;28;20049;-78
2022/09/27 06:30:59;;;;;;;7.63;1.60;;;19.50;96.70;;;;;;5044084;28;20061;-79
2022/09/27 06:34:02;;;;;;;12.63;2.15;;;19.60;96.70;;;;;;5022188;28;20076;-77
2022/09/27 06:36:32;;;;;;;8.77;2.20;;;19.60;96.70;;;;;;5010881;28;20067;-80
2022/09/27 06:39:00;;;;;;;10.20;1.75;;;19.60;96.70;;;;;;5043358;28;20119;-79
2022/09/27 06:41:33;;;;;;;8.52;1.83;;;19.60;96.70;;;;;;5026014;28;20072;-79
2022/09/27 06:44:06;;;;;;;9.88;1.85;;;19.60;96.70;;;;;;5054973;28;20052;-79
2022/09/27 06:46:46;;;;;;;7.88;1.92;;;19.60;96.70;;;;;;5084101;28;20108;-78
2022/09/27 06:49:51;;;;;;;13.38;2.25;;;19.70;96.70;;;;;;5064293;28;20036;-80
2022/09/27 06:52:19;;;;;;;12.73;2.33;;;19.80;96.70;;;;;;5081524;28;20275;-81
2022/09/27 06:54:47;;;;;;;9.93;2.30;;;19.80;96.70;;;;;;5065177;28;20045;-82
2022/09/27 07:00:22;;;;;;;12.55;2.75;;;19.90;96.70;;;;;;5064706;28;20545;-80
2022/09/27 07:00:23;;;;;;;10.68;2.35;;;20.00;96.70;;;;;;5065692;28;20051;-81
2022/09/27 07:03:02;;;;;;;10.60;2.10;;;20.10;96.70;;;;;;5059600;28;20048;-77
2022/09/27 07:05:57;;;;;;;13.50;2.38;;;20.10;96.70;;;;;;5065602;28;20086;-85
2022/09/27 07:08:50;;;;;;;10.95;1.98;;;20.20;96.70;;;;;;5059618;28;20053;-85
2022/09/27 07:11:19;;;;;;;10.00;2.40;;;20.20;96.70;;;;;;5062705;28;20080;-85
2022/09/27 07:13:47;;;;;;;12.82;2.13;;;20.30;96.70;;;;;;5050070;28;20068;-85
2022/09/27 07:16:15;;;;;;;9.50;1.95;;;20.40;96.70;;;;;;5074716;28;20147;-84
2022/09/27 07:18:43;;;;;;;9.52;1.50;;;20.40;96.70;;;;;;5063507;28;20032;-80
2022/09/27 07:21:15;;;;;;;11.45;2.22;;;20.40;96.70;;;;;;5064269;28;20052;-80
2022/09/27 07:23:43;;;;;;;11.10;2.20;;;20.40;96.70;;;;;;5072222;28;20060;-80
2022/09/27 07:26:13;;;;;;;8.07;1.80;;;20.60;96.70;;;;;;5103092;28;20072;-82
2022/09/27 07:28:43;;;;;;;9.35;2.30;;;20.60;96.70;;;;;;5083790;28;20653;-79
2022/09/27 07:31:15;;;;;;;10.32;2.70;;;20.60;96.70;;;;;;5080614;28;20501;-81
2022/09/27 07:33:44;;;;;;;9.60;2.17;;;20.70;96.70;;;;;;5069210;28;20055;-81
2022/09/27 07:36:14;;;;;;;8.27;1.92;;;20.70;96.70;;;;;;5066701;28;20147;-81
2022/09/27 07:38:45;;;;;;;11.43;1.92;;;20.80;96.70;;;;;;5077425;28;20060;-82
2022/09/27 07:41:16;;;;;;;12.25;2.78;;;20.90;96.70;;;;;;5081567;28;20086;-80
2022/09/27 07:43:44;;;;;;;12.90;2.05;;;20.90;96.70;;;;;;5072629;28;20083;-77
2022/09/27 07:46:13;;;;;;;8.63;1.88;;;20.90;96.70;;;;;;5067826;28;20063;-79
2022/09/27 07:49:06;;;;;;;8.23;1.83;;;20.90;96.70;;;;;;5082308;28;20065;-84
2022/09/27 07:51:36;;;;;;;12.82;2.33;;;21.00;96.70;;;;;;5085700;28;20074;-84
2022/09/27 07:54:14;;;;;;;8.73;2.00;;;21.00;96.70;;;;;;5086608;28;20691;-84
2022/09/27 07:57:08;;;;;;;13.55;2.00;;;20.90;96.70;;;;;;5087608;28;20147;-83
2022/09/27 07:59:46;;;;;;;16.42;3.22;;;21.00;96.70;;;;;;5088069;28;20043;-87
2022/09/27 08:02:17;;;;;;;10.98;2.28;;;21.10;96.70;;;;;;5082355;28;20044;-85
2022/09/27 08:04:55;;;;;;;8.40;2.20;;;21.00;96.70;;;;;;5067666;28;20039;-82
2022/09/27 08:07:28;;;;;;;12.20;2.22;;;20.90;96.70;;;;;;5087531;28;20040;-86
2022/09/27 08:09:56;;;;;;;9.88;1.60;;;20.80;96.70;;;;;;5069450;28;20139;-85
2022/09/27 08:12:28;;;;;;;8.50;2.05;;;20.80;96.70;;;;;;5081315;28;20043;-87
2022/09/27 08:15:00;;;;;;;7.60;1.77;;;20.70;96.70;;;;;;5087295;28;20142;-86
2022/09/27 08:17:28;;;;;;;8.70;1.73;;;20.70;96.70;;;;;;5054286;28;20052;-85
2022/09/27 08:20:23;;;;;;;9.07;1.73;;;20.70;96.70;;;;;;5082911;28;20036;-87
2022/09/27 08:22:55;;;;;;;10.55;1.95;;;20.60;96.70;;;;;;5089286;28;20105;-88
2022/09/27 08:25:32;;;;;;;6.70;1.58;;;20.60;96.70;;;;;;5072304;28;20052;-87
2022/09/27 08:28:19;;;;;;;10.85;1.63;;;20.50;96.70;;;;;;5082934;28;20055;-87
2022/09/27 08:30:58;;;;;;;12.30;2.50;;;20.40;96.70;;;;;;5088062;28;20097;-86
2022/09/27 08:33:26;;;;;;;8.50;1.52;;;20.40;96.70;;;;;;5067284;28;20080;-86
2022/09/27 08:36:00;;;;;;;7.97;1.85;;;20.40;96.70;;;;;;5120556;27;20044;-85
2022/09/27 08:38:30;;;;;;;8.05;1.70;;;20.40;96.70;;;;;;5070325;28;20051;-86
2022/09/27 08:41:06;;;;;;;8.07;1.80;;;20.50;96.70;;;;;;5087548;28;20040;-88
2022/09/27 08:43:40;;;;;;;9.75;1.75;;;20.60;96.70;;;;;;5084891;28;20048;-86
2022/09/27 08:46:27;;;;;;;10.63;1.67;;;20.70;96.70;;;;;;5085554;28;20386;-88
2022/09/27 08:49:04;;;;;;;8.45;2.22;;;20.70;96.70;;;;;;5066291;28;20075;-85
2022/09/27 08:51:34;;;;;;;9.15;2.00;;;20.70;96.70;;;;;;5099513;28;20040;-87
2022/09/27 08:54:07;;;;;;;8.60;1.60;;;20.70;96.70;;;;;;5070134;28;20387;-86
2022/09/27 08:56:36;;;;;;;11.65;2.60;;;20.70;96.70;;;;;;5070254;28;20567;-88
2022/09/27 08:59:11;;;;;;;16.58;2.58;;;20.70;96.70;;;;;;5070109;28;20127;-85
2022/09/27 09:01:40;;;;;;;6.68;2.22;;;20.70;96.70;;;;;;5087301;28;20456;-85
2022/09/27 09:04:28;;;;;;;7.57;1.80;;;20.60;96.70;;;;;;5085360;28;20436;-87
2022/09/27 09:07:08;;;;;;;8.15;1.83;;;20.70;96.70;;;;;;5086400;28;20501;-84
2022/09/27 09:09:50;;;;;;;7.75;1.67;;;20.70;96.70;;;;;;5085980;28;20040;-86
2022/09/27 09:12:47;;;;;;;11.85;1.88;;;20.70;96.70;;;;;;5068753;28;20071;-86
2022/09/27 09:15:53;;;;;;;14.40;2.05;;;20.80;96.70;;;;;;5076680;28;20052;-86
2022/09/27 09:18:45;;;;;;;11.50;1.73;;;21.10;96.70;;;;;;5082831;28;20052;-87
2022/09/27 09:21:28;;;;;;;10.90;2.13;;;21.50;96.70;;;;;;5077394;28;20147;-84
2022/09/27 09:24:23;;;;;;;9.43;1.70;;;21.50;96.70;;;;;;5064828;28;20060;-82
2022/09/27 09:26:59;;;;;;;5.88;1.38;;;21.40;96.70;;;;;;5086197;28;20682;-85
2022/09/27 09:29:44;;;;;;;8.68;1.75;;;21.50;96.70;;;;;;5086534;28;20040;-87
2022/09/27 09:32:22;;;;;;;6.70;1.63;;;21.50;96.70;;;;;;5086656;28;20055;-87
2022/09/27 09:34:56;;;;;;;8.18;1.95;;;21.60;96.70;;;;;;5103006;28;20623;-87
2022/09/27 09:37:36;;;;;;;8.18;2.25;;;21.60;96.70;;;;;;5069987;28;20048;-86
2022/09/27 09:40:14;;;;;;;11.63;1.92;;;21.60;96.70;;;;;;5086942;28;20048;-85
2022/09/27 09:42:48;;;;;;;10.93;1.75;;;21.50;96.70;;;;;;5083440;28;20822;-86
2022/09/27 09:45:24;;;;;;;8.30;1.10;;;21.40;96.70;;;;;;5070425;28;20051;-87
2022/09/27 09:48:00;;;;;;;5.70;1.00;;;21.30;96.70;;;;;;5081978;28;20071;-88
2022/09/27 09:50:34;;;;;;;6.75;1.20;;;21.40;96.70;;;;;;5071387;28;20048;-86
2022/09/27 09:53:12;;;;;;;8.73;1.23;;;21.70;96.70;;;;;;5088341;28;20052;-86
2022/09/27 09:55:43;;;;;;;5.95;1.10;;;22.00;96.70;;;;;;5090820;28;20110;-86
2022/09/27 09:58:35;;;;;;;5.45;0.90;;;21.90;96.70;;;;;;5090482;28;20071;-87
2022/09/27 10:01:16;;;;;;;6.15;1.17;;;21.80;96.70;;;;;;5083510;28;20139;-87
2022/09/27 10:03:45;;;;;;;3.83;1.02;;;21.90;96.70;;;;;;5090948;28;20044;-87
2022/09/27 10:06:15;;;;;;;6.05;1.27;;;22.10;96.70;;;;;;5073940;28;20040;-88
2022/09/27 10:08:44;;;;;;;9.07;1.25;;;22.30;96.70;;;;;;5091574;28;20074;-88
2022/09/27 10:11:24;;;;;;;4.63;1.20;;;21.90;96.70;;;;;;5070864;28;20047;-86
2022/09/27 10:14:22;;;;;;;6.18;1.27;;;21.70;96.70;;;;;;5081463;28;20133;-87
2022/09/27 10:16:58;;;;;;;9.30;1.42;;;21.80;96.70;;;;;;5099374;28;20314;-87
2022/09/27 10:19:30;;;;;;;6.55;1.27;;;21.60;96.70;;;;;;5069462;28;20059;-88
2022/09/27 10:22:03;;;;;;;11.43;1.40;;;21.50;96.70;;;;;;5085422;28;20135;-87
2022/09/27 10:24:55;;;;;;;3.65;1.02;;;21.50;96.70;;;;;;5087039;28;20410;-87
2022/09/27 10:27:53;;;;;;;4.60;0.85;;;21.40;96.70;;;;;;5087379;28;20052;-86
2022/09/27 10:30:32;;;;;;;8.05;1.13;;;21.70;96.70;;;;;;5083613;28;20053;-85
2022/09/27 10:33:15;;;;;;;5.22;0.85;;;21.80;96.70;;;;;;5073467;28;20048;-86
2022/09/27 10:35:49;;;;;;;5.43;0.90;;;22.20;96.70;;;;;;5067084;28;20040;-85
2022/09/27 10:38:30;;;;;;;5.65;0.68;;;22.10;96.70;;;;;;5082222;28;20089;-87
2022/09/27 10:41:35;;;;;;;3.17;0.70;;;22.00;96.70;;;;;;5070203;28;20040;-86
2022/09/27 10:44:23;;;;;;;4.75;0.85;;;22.10;96.70;;;;;;5069702;28;20098;-86
2022/09/27 10:47:07;;;;;;;4.10;0.60;;;22.20;96.70;;;;;;5082600;28;20036;-85
2022/09/27 10:50:05;;;;;;;5.70;0.80;;;22.30;96.70;;;;;;5089257;28;20063;-88
2022/09/27 10:53:05;;;;;;;6.43;1.00;;;22.30;96.70;;;;;;5067219;28;20164;-86
2022/09/27 10:55:36;;;;;;;3.25;0.63;;;22.20;96.70;;;;;;5089145;28;20059;-85
2022/09/27 10:58:15;;;;;;;6.45;0.80;;;22.10;96.70;;;;;;5089786;28;20039;-86
2022/09/27 11:00:56;;;;;;;4.65;0.85;;;22.10;96.70;;;;;;5068749;28;20114;-87
2022/09/27 11:03:27;;;;;;;4.90;0.82;;;22.10;96.70;;;;;;5081675;28;20036;-87
2022/09/27 11:05:58;;;;;;;4.47;1.05;;;22.20;96.70;;;;;;5086696;28;20118;-87
2022/09/27 11:08:31;;;;;;;7.10;0.98;;;22.50;96.70;;;;;;5065772;28;20558;-86
2022/09/27 11:11:15;;;;;;;3.42;0.90;;;22.70;96.70;;;;;;5089603;28;20044;-87
2022/09/27 11:13:58;;;;;;;5.15;0.80;;;22.60;96.70;;;;;;5079943;28;20052;-87
2022/09/27 11:16:46;;;;;;;4.20;1.17;;;22.50;96.70;;;;;;5083160;28;20105;-86
2022/09/27 11:19:34;;;;;;;4.18;0.98;;;22.40;96.70;;;;;;5088124;28;20048;-86
2022/09/27 11:22:15;;;;;;;3.90;0.75;;;22.20;96.70;;;;;;5088544;28;20135;-85
2022/09/27 11:24:59;;;;;;;5.47;1.00;;;22.30;96.70;;;;;;5084285;28;20052;-86
2022/09/27 11:27:44;;;;;;;5.07;0.70;;;22.20;96.70;;;;;;5075094;28;20589;-86
2022/09/27 11:30:18;;;;;;;4.97;0.80;;;22.00;96.70;;;;;;5089530;28;20052;-88
2022/09/27 11:33:44;;;;;;;4.03;0.88;;;22.00;96.70;;;;;;5067114;28;20047;-87
2022/09/27 11:36:25;;;;;;;5.78;0.95;;;22.10;96.70;;;;;;5087548;28;20456;-87
2022/09/27 11:39:02;;;;;;;5.63;1.10;;;22.00;96.70;;;;;;5086336;28;20484;-87
2022/09/27 11:41:47;;;;;;;5.35;1.10;;;22.00;96.70;;;;;;5070425;28;20048;-88
2022/09/27 11:44:50;;;;;;;5.00;0.85;;;22.00;96.70;;;;;;5086364;28;20047;-85
2022/09/27 11:47:46;;;;;;;6.30;0.70;;;22.00;96.70;;;;;;5085423;28;20482;-87
2022/09/27 11:50:52;;;;;;;5.40;0.90;;;22.20;96.70;;;;;;5066513;28;20040;-86
2022/09/27 11:53:46;;;;;;;5.55;0.82;;;22.30;96.70;;;;;;5083256;28;20047;-87
2022/09/27 11:56:28;;;;;;;3.88;0.80;;;22.20;96.70;;;;;;5117635;27;20067;-87
2022/09/27 11:59:11;;;;;;;5.60;0.90;;;22.20;96.70;;;;;;5087664;28;20056;-87
2022/09/27 12:01:49;;;;;;;2.35;0.47;;;22.20;96.70;;;;;;5071087;28;20116;-86
2022/09/27 12:04:50;;;;;;;5.97;0.73;;;22.10;96.70;;;;;;5085157;28;20140;-85
2022/09/27 12:07:32;;;;;;;4.25;0.70;;;22.10;96.70;;;;;;5076673;28;20053;-87
2022/09/27 12:10:08;;;;;;;4.10;0.70;;;22.40;96.70;;;;;;5086203;28;20048;-87
2022/09/27 12:12:55;;;;;;;5.00;1.00;;;22.50;96.70;;;;;;5100407;28;20044;-87
2022/09/27 12:15:29;;;;;;;6.43;0.80;;;22.40;96.70;;;;;;5083541;28;20052;-88
2022/09/27 12:18:06;;;;;;;7.60;1.35;;;22.20;96.70;;;;;;5083042;28;20044;-85
2022/09/27 12:20:39;;;;;;;3.70;1.00;;;22.10;96.70;;;;;;5082135;28;20047;-86
2022/09/27 12:23:16;;;;;;;5.07;1.00;;;22.20;96.70;;;;;;5087623;28;20142;-88
2022/09/27 12:26:17;;;;;;;6.32;1.05;;;22.10;96.70;;;;;;5078655;28;20060;-87
2022/09/27 12:28:51;;;;;;;7.63;1.42;;;22.20;96.70;;;;;;5087043;28;20596;-88
2022/09/27 12:31:25;;;;;;;5.25;1.38;;;22.10;96.70;;;;;;5067090;28;20059;-86
2022/09/27 12:34:09;;;;;;;6.15;1.20;;;22.00;96.70;;;;;;5070059;28;20580;-87
2022/09/27 12:36:45;;;;;;;10.05;2.08;;;21.80;96.70;;;;;;5065503;28;20510;-87
2022/09/27 12:39:20;;;;;;;5.97;1.10;;;21.50;96.70;;;;;;5084735;28;20150;-86
2022/09/27 12:42:00;;;;;;;7.85;2.03;;;20.70;96.70;;;;;;5085897;28;20048;-88
2022/09/27 12:44:41;;;;;;;9.13;1.25;;;20.50;96.70;;;;;;5070784;28;20036;-87
2022/09/27 12:47:37;;;;;;;13.18;1.38;;;20.30;96.70;;;;;;5087153;28;20135;-86
2022/09/27 12:50:29;;;;;;;10.60;1.70;;;20.70;96.70;;;;;;5077554;28;20579;-87
2022/09/27 12:53:03;;;;;;;5.25;0.93;;;20.90;96.70;;;;;;5059271;28;20109;-88
2022/09/27 12:55:59;;;;;;;9.27;1.35;;;21.50;96.70;;;;;;5087143;28;20146;-86
2022/09/27 12:58:51;;;;;;;7.82;1.27;;;21.80;96.70;;;;;;5066563;28;20048;-88
2022/09/27 13:01:38;;;;;;;7.55;1.08;;;21.90;96.70;;;;;;5062562;28;20044;-88
2022/09/27 13:04:39;;;;;;;6.10;1.00;;;22.10;96.70;;;;;;5066152;28;20127;-89
2022/09/27 13:07:24;;;;;;;7.85;1.50;;;22.30;96.70;;;;;;5092680;28;20051;-87
2022/09/27 13:10:25;;;;;;;7.18;1.10;;;22.00;96.70;;;;;;5067282;28;20087;-85
2022/09/27 13:13:13;;;;;;;4.95;0.98;;;21.90;96.70;;;;;;5081377;28;20040;-87
2022/09/27 13:15:44;;;;;;;6.97;1.20;;;22.20;96.70;;;;;;5060576;28;20072;-86
2022/09/27 13:18:45;;;;;;;8.98;1.42;;;22.20;96.70;;;;;;5046355;28;20060;-87
2022/09/27 13:21:53;;;;;;;9.43;1.75;;;22.30;96.70;;;;;;5043878;28;20076;-87
2022/09/27 13:24:48;;;;;;;6.65;1.40;;;22.40;96.70;;;;;;5040133;28;20395;-86
2022/09/27 13:27:39;;;;;;;7.57;1.20;;;22.50;96.70;;;;;;5046520;28;20045;-87
2022/09/27 13:30:47;;;;;;;6.53;1.23;;;22.40;96.70;;;;;;5053174;28;20079;-86
2022/09/27 13:33:42;;;;;;;7.15;1.73;;;22.70;96.70;;;;;;5052419;28;20059;-86
2022/09/27 13:36:34;;;;;;;7.03;1.30;;;22.80;96.70;;;;;;5033518;28;20041;-85
2022/09/27 13:39:19;;;;;;;7.60;1.20;;;22.70;96.70;;;;;;5046061;28;20059;-86
2022/09/27 13:42:30;;;;;;;4.87;1.03;;;22.80;96.70;;;;;;5050733;28;20094;-87
2022/09/27 13:45:20;;;;;;;7.10;1.42;;;23.00;96.70;;;;;;5032844;28;20898;-86